.
WxDataArchive / Data Records for 2014-02-12
2014-02-11 February 2014 2014-02-13

Data Records for Wednesday, 12 February 2014

Time	Temp	Chill	HIndex	Humid	Dewpt	 Wind 	HiWind	WindDir	Rain 	Barom 
-----	----	-----	------	-----	-----	------	------	-------	-----	----- 
00:00	-6.8	-6.8	-6.8	76	-12.3	0	0	---	0.00	30.509 
00:05	-7.0	-7.0	-7.0	76	-12.5	0	0	---	0.00	30.509 
00:10	-7.2	-7.2	-7.2	76	-12.7	0	0	---	0.00	30.509 
00:15	-7.5	-7.5	-7.5	76	-13.0	0	0	---	0.00	30.506 
00:20	-7.5	-7.5	-7.5	76	-13.0	0	0	---	0.00	30.506 
00:25	-7.5	-7.5	-7.5	76	-13.0	0	0	---	0.00	30.506 
00:30	-7.7	-7.7	-7.7	76	-13.2	0	0	---	0.00	30.507 
00:35	-7.9	-7.9	-7.9	75	-13.7	0	0	---	0.00	30.507 
00:40	-7.9	-7.9	-7.9	75	-13.7	0	0	---	0.00	30.507 
00:45	-8.2	-8.2	-8.2	75	-14.0	0	0	---	0.00	30.493 
00:50	-8.2	-8.2	-8.2	75	-14.0	0	0	---	0.00	30.493 
00:55	-8.4	-8.4	-8.4	75	-14.2	0	0	---	0.00	30.493 
01:00	-8.4	-8.4	-8.4	75	-14.2	0	0	---	0.00	30.487 
01:05	-8.4	-8.4	-8.4	75	-14.2	0	0	---	0.00	30.487 
01:10	-8.6	-8.6	-8.6	75	-14.4	0	0	---	0.00	30.487 
01:15	-8.6	-8.6	-8.6	75	-14.4	0	0	---	0.00	30.478 
01:20	-8.9	-8.9	-8.9	75	-14.6	0	0	---	0.00	30.478 
01:25	-8.9	-8.9	-8.9	75	-14.6	0	0	---	0.00	30.478 
01:30	-9.1	-9.1	-9.1	75	-14.8	0	0	---	0.00	30.463 
01:35	-9.1	-9.1	-9.1	74	-15.1	0	0	---	0.00	30.463 
01:40	-9.1	-9.1	-9.1	75	-14.8	0	0	---	0.00	30.463 
01:45	-9.1	-9.1	-9.1	74	-15.1	0	0	---	0.00	30.462 
01:50	-9.3	-9.3	-9.3	74	-15.3	0	0	---	0.00	30.462 
01:55	-9.3	-9.3	-9.3	74	-15.3	0	0	---	0.00	30.462 
02:00	-9.3	-9.3	-9.3	74	-15.3	0	0	---	0.00	30.446 
02:05	-9.3	-9.3	-9.3	74	-15.3	0	0	---	0.00	30.446 
02:10	-9.3	-9.3	-9.3	74	-15.3	0	0	---	0.00	30.446 
02:15	-9.3	-9.3	-9.3	74	-15.3	0	0	---	0.00	30.445 
02:20	-9.6	-9.6	-9.6	74	-15.6	0	0	---	0.00	30.445 
02:25	-9.6	-9.6	-9.6	74	-15.6	0	0	---	0.00	30.445 
02:30	-9.6	-9.6	-9.6	74	-15.6	0	0	---	0.00	30.439 
02:35	-9.8	-9.8	-9.8	74	-15.8	0	0	---	0.00	30.439 
02:40	-9.8	-9.8	-9.8	74	-15.8	0	0	---	0.00	30.439 
02:45	-9.6	-9.6	-9.6	75	-15.3	0	0	---	0.00	30.442 
02:50	-9.3	-9.3	-9.3	74	-15.3	0	0	---	0.00	30.442 
02:55	-9.6	-9.6	-9.6	74	-15.6	0	0	---	0.00	30.442 
03:00	-9.6	-9.6	-9.6	74	-15.6	0	0	---	0.00	30.443 
03:05	-9.8	-9.8	-9.8	74	-15.8	0	0	---	0.00	30.443 
03:10	-10.0	-10.0	-10.0	74	-16.0	0	0	---	0.00	30.443 
03:15	-10.0	-10.0	-10.0	74	-16.0	0	0	---	0.00	30.444 
03:20	-10.0	-10.0	-10.0	74	-16.0	0	0	---	0.00	30.444 
03:25	-10.3	-10.3	-10.3	74	-16.3	0	0	---	0.00	30.444 
03:30	-10.3	-10.3	-10.3	74	-16.3	0	0	---	0.00	30.441 
03:35	-10.3	-10.3	-10.3	74	-16.3	0	0	---	0.00	30.441 
03:40	-10.3	-10.3	-10.3	74	-16.3	0	0	---	0.00	30.441 
03:45	-10.3	-10.3	-10.3	74	-16.3	0	0	---	0.00	30.444 
03:50	-10.3	-10.3	-10.3	73	-16.5	0	0	---	0.00	30.444 
03:55	-10.5	-10.5	-10.5	73	-16.7	0	0	---	0.00	30.444 
04:00	-11.0	-11.0	-11.0	73	-17.2	0	0	---	0.00	30.443 
04:05	-11.0	-11.0	-11.0	73	-17.2	0	0	---	0.00	30.443 
04:10	-11.2	-11.2	-11.2	73	-17.4	0	0	---	0.00	30.443 
04:15	-11.0	-11.0	-11.0	73	-17.2	0	0	---	0.00	30.446 
04:20	-11.2	-11.2	-11.2	73	-17.4	0	0	---	0.00	30.446 
04:25	-11.2	-11.2	-11.2	73	-17.4	0	0	---	0.00	30.446 
04:30	-11.2	-11.2	-11.2	73	-17.4	0	0	---	0.00	30.448 
04:35	-11.2	-11.2	-11.2	73	-17.4	0	0	---	0.00	30.448 
04:40	-11.2	-11.2	-11.2	73	-17.4	0	0	---	0.00	30.448 
04:45	-11.2	-11.2	-11.2	73	-17.4	0	0	---	0.00	30.438 
04:50	-11.0	-11.0	-11.0	73	-17.2	0	0	---	0.00	30.438 
04:55	-11.0	-11.0	-11.0	74	-16.9	0	0	---	0.00	30.438 
05:00	-11.0	-11.0	-11.0	73	-17.2	0	0	---	0.00	30.435 
05:05	-11.0	-11.0	-11.0	73	-17.2	0	0	---	0.00	30.435 
05:10	-11.2	-11.2	-11.2	73	-17.4	0	0	---	0.00	30.435 
05:15	-11.2	-11.2	-11.2	73	-17.4	0	0	---	0.00	30.434 
05:20	-11.2	-11.2	-11.2	73	-17.4	0	0	---	0.00	30.434 
05:25	-11.2	-11.2	-11.2	73	-17.4	0	0	---	0.00	30.434 
05:30	-11.2	-11.2	-11.2	73	-17.4	0	0	---	0.00	30.434 
05:35	-11.0	-11.0	-11.0	73	-17.2	0	0	---	0.00	30.434 
05:40	-11.0	-11.0	-11.0	73	-17.2	0	1	90	0.00	30.434 
05:45	-11.2	-11.2	-11.2	73	-17.4	0	0	---	0.00	30.430 
05:50	-11.2	-11.2	-11.2	73	-17.4	0	0	---	0.00	30.430 
05:55	-11.2	-11.2	-11.2	73	-17.4	0	0	---	0.00	30.430 
06:00	-11.0	-11.0	-11.0	74	-16.9	0	0	---	0.00	30.420 
06:05	-11.0	-11.0	-11.0	73	-17.2	0	0	---	0.00	30.420 
06:10	-11.0	-11.0	-11.0	73	-17.2	0	0	---	0.00	30.420 
06:15	-11.0	-11.0	-11.0	73	-17.2	0	0	---	0.00	30.424 
06:20	-11.2	-11.2	-11.2	73	-17.4	0	0	---	0.00	30.424 
06:25	-11.2	-11.2	-11.2	73	-17.4	0	0	---	0.00	30.424 
06:30	-11.2	-11.2	-11.2	73	-17.4	0	0	---	0.00	30.408 
06:35	-11.0	-11.0	-11.0	74	-16.9	0	0	---	0.00	30.408 
06:40	-10.7	-10.7	-10.7	74	-16.7	0	0	---	0.00	30.408 
06:45	-10.5	-10.5	-10.5	74	-16.5	0	0	---	0.00	30.405 
06:50	-10.5	-10.5	-10.5	74	-16.5	0	1	90	0.00	30.405 
06:55	-10.3	-10.3	-10.3	74	-16.3	0	1	90	0.00	30.405 
07:00	-10.0	-10.0	-10.0	74	-16.0	0	1	90	0.00	30.397 
07:05	-10.0	-10.0	-10.0	74	-16.0	0	1	90	0.00	30.397 
07:10	-9.8	-9.8	-9.8	74	-15.8	0	1	90	0.00	30.397 
07:15	-9.8	-9.8	-9.8	73	-16.0	0	1	90	0.00	30.408 
07:20	-9.8	-9.8	-9.8	73	-16.0	0	1	90	0.00	30.408 
07:25	-9.8	-9.8	-9.8	73	-16.0	0	1	90	0.00	30.408 
07:30	-9.8	-9.8	-9.8	73	-16.0	0	1	90	0.00	30.404 
07:35	-9.8	-9.8	-9.8	73	-16.0	0	0	---	0.00	30.404 
07:40	-10.0	-10.0	-10.0	72	-16.5	0	1	90	0.00	30.404 
07:45	-9.8	-9.8	-9.8	73	-16.0	0	1	90	0.00	30.407 
07:50	-9.8	-9.8	-9.8	73	-16.0	0	1	90	0.00	30.407 
07:55	-9.8	-9.8	-9.8	72	-16.3	0	1	90	0.00	30.407 
08:00	-9.8	-9.8	-9.8	72	-16.3	0	1	90	0.00	30.401 
08:05	-9.8	-9.8	-9.8	72	-16.3	0	1	90	0.00	30.401 
08:10	-9.6	-9.6	-9.6	72	-16.1	0	1	90	0.00	30.401 
08:15	-9.6	-9.6	-9.6	72	-16.1	0	0	---	0.00	30.399 
08:20	-9.6	-9.6	-9.6	72	-16.1	0	0	---	0.00	30.399 
08:25	-9.3	-9.3	-9.3	73	-15.6	0	0	---	0.00	30.399 
08:30	-9.1	-9.1	-9.1	73	-15.4	0	0	---	0.00	30.399 
08:35	-8.9	-8.9	-8.9	73	-15.2	0	1	90	0.00	30.399 
08:40	-8.6	-8.6	-8.6	73	-14.9	0	1	90	0.00	30.399 
08:45	-8.6	-8.6	-8.6	73	-14.9	0	2	90	0.00	30.401 
08:50	-8.4	-8.4	-8.4	73	-14.7	0	2	90	0.00	30.401 
08:55	-8.2	-8.2	-8.2	73	-14.5	0	1	90	0.00	30.401 
09:00	-7.9	-7.9	-7.9	73	-14.2	1	3	90	0.00	30.409 
09:05	-7.9	-7.9	-7.9	73	-14.2	1	2	90	0.00	30.409 
09:10	-7.9	-7.9	-7.9	73	-14.2	0	2	90	0.00	30.409 
09:15	-7.5	-7.5	-7.5	73	-13.8	1	3	90	0.00	30.404 
09:20	-7.5	-7.5	-7.5	73	-13.8	1	3	90	0.00	30.404 
09:25	-7.5	-7.5	-7.5	73	-13.8	1	2	90	0.00	30.404 
09:30	-7.2	-7.2	-7.2	73	-13.5	1	3	90	0.00	30.409 
09:35	-7.2	-7.2	-7.2	73	-13.5	0	2	90	0.00	30.409 
09:40	-6.8	-6.8	-6.8	74	-12.9	0	2	90	0.00	30.409 
09:45	-6.3	-6.3	-6.3	74	-12.4	0	2	90	0.00	30.410 
09:50	-5.9	-5.9	-5.9	74	-12.0	0	1	90	0.00	30.410 
09:55	-5.2	-5.2	-5.2	75	-11.1	0	1	90	0.00	30.410 
10:00	-4.8	-4.8	-4.8	75	-10.7	1	2	90	0.00	30.398 
10:05	-4.6	-4.6	-4.6	75	-10.5	0	2	90	0.00	30.398 
10:10	-4.3	-4.3	-4.3	75	-10.2	1	3	90	0.00	30.398 
10:15	-4.3	-4.3	-4.3	75	-10.2	0	2	90	0.00	30.396 
10:20	-4.1	-4.1	-4.1	75	-10.0	0	1	90	0.00	30.396 
10:25	-4.1	-4.1	-4.1	75	-10.0	0	1	90	0.00	30.396 
10:30	-3.3	-3.3	-3.3	77	-8.7	0	2	90	0.00	30.390 
10:35	-2.4	-2.4	-2.4	77	-7.8	1	2	90	0.00	30.390 
10:40	-1.8	-1.8	-1.8	77	-7.2	0	2	90	0.00	30.390 
10:45	-1.0	-1.0	-1.0	78	-6.2	0	2	90	0.00	30.371 
10:50	0.1	0.1	0.1	79	-4.8	0	2	90	0.00	30.371 
10:55	0.9	0.9	0.9	78	-4.3	0	2	90	0.00	30.371 
11:00	1.1	1.1	1.1	79	-3.9	1	2	90	0.00	30.364 
11:05	1.3	1.3	1.3	78	-3.9	1	3	90	0.00	30.364 
11:10	1.3	1.3	1.3	79	-3.7	0	2	90	0.00	30.364 
11:15	1.1	1.1	1.1	78	-4.1	0	1	90	0.00	30.375 
11:20	1.1	1.1	1.1	79	-3.9	0	1	90	0.00	30.375 
11:25	1.7	1.7	1.7	79	-3.3	1	3	90	0.00	30.375 
11:30	2.0	2.0	2.0	79	-3.0	0	2	90	0.00	30.375 
11:35	2.6	2.6	2.6	79	-2.4	1	2	90	0.00	30.375 
11:40	2.8	2.8	2.8	80	-1.9	0	3	90	0.00	30.375 
11:45	3.0	3.0	3.0	80	-1.7	1	3	90	0.00	30.375 
11:50	3.2	3.2	3.2	80	-1.6	1	2	90	0.00	30.375 
11:55	3.9	3.9	3.9	81	-0.6	0	2	90	0.00	30.375 
12:00	4.7	4.7	4.7	81	0.2	0	1	90	0.00	30.364 
12:05	5.2	5.2	5.2	81	0.7	0	2	90	0.00	30.364 
12:10	5.4	5.4	5.4	81	0.9	0	2	90	0.00	30.364 
12:15	5.2	5.2	5.2	80	0.4	0	2	90	0.00	30.355 
12:20	5.0	5.0	5.0	81	0.5	1	3	90	0.00	30.355 
12:25	5.2	5.2	5.2	81	0.7	1	2	90	0.00	30.355 
12:30	5.6	5.6	5.6	81	1.1	0	1	90	0.00	30.338 
12:35	6.0	6.0	6.0	81	1.4	0	2	90	0.00	30.338 
12:40	6.3	6.3	6.3	81	1.7	0	2	90	0.00	30.338 
12:45	6.7	6.7	6.7	82	2.4	0	1	90	0.00	30.322 
12:50	7.2	7.2	7.2	82	2.9	0	2	90	0.00	30.322 
12:55	7.2	7.2	7.2	81	2.6	1	4	90	0.00	30.322 
13:00	7.0	7.0	7.0	81	2.4	1	3	90	0.00	30.305 
13:05	7.0	7.0	7.0	81	2.4	1	2	90	0.00	30.305 
13:10	7.2	7.2	7.2	82	2.9	0	2	90	0.00	30.305 
13:15	7.6	7.6	7.6	82	3.3	0	3	90	0.00	30.292 
13:20	7.6	7.6	7.6	81	3.0	1	4	90	0.00	30.292 
13:25	7.7	7.7	7.7	81	3.1	2	5	90	0.00	30.292 
13:30	7.6	7.6	7.6	81	3.0	1	3	90	0.00	30.282 
13:35	7.7	7.7	7.7	80	2.8	1	3	90	0.00	30.282 
13:40	7.9	7.9	7.9	79	2.8	1	2	90	0.00	30.282 
13:45	8.4	8.4	8.4	78	3.0	1	3	90	0.00	30.273 
13:50	8.8	8.8	8.8	77	3.1	1	2	90	0.00	30.273 
13:55	9.0	9.0	9.0	77	3.3	0	2	90	0.00	30.273 
14:00	9.3	9.3	9.3	75	3.0	1	4	90	0.00	30.262 
14:05	9.7	9.7	9.7	75	3.4	0	1	90	0.00	30.262 
14:10	10.2	10.2	10.2	73	3.3	1	4	90	0.00	30.262 
14:15	10.5	10.5	10.5	70	2.7	3	6	90	0.00	30.240 
14:20	10.9	10.9	10.9	69	2.8	1	4	90	0.00	30.240 
14:25	11.2	11.2	11.2	69	3.0	1	4	90	0.00	30.240 
14:30	11.2	11.2	11.2	68	2.7	1	3	90	0.00	30.229 
14:35	11.1	11.1	11.1	67	2.3	2	4	90	0.00	30.229 
14:40	10.9	10.9	10.9	67	2.1	1	4	90	0.00	30.229 
14:45	11.1	11.1	11.1	67	2.3	1	3	90	0.00	30.227 
14:50	11.2	11.2	11.2	67	2.4	1	4	90	0.00	30.227 
14:55	11.6	11.6	11.6	67	2.8	0	3	90	0.00	30.227 
15:00	11.6	11.6	11.6	67	2.8	0	3	90	0.00	30.224 
15:05	11.9	11.9	11.9	66	2.8	0	2	90	0.00	30.224 
15:10	12.1	12.1	12.1	65	2.6	0	1	90	0.00	30.224 
15:15	12.3	12.3	12.3	65	2.8	0	2	90	0.00	30.231 
15:20	12.6	12.6	12.6	64	2.8	0	2	90	0.00	30.231 
15:25	12.6	12.6	12.6	64	2.8	2	3	90	0.00	30.231 
15:30	12.6	12.6	12.6	64	2.8	2	4	90	0.00	30.219 
15:35	12.6	12.6	12.6	64	2.8	3	5	90	0.00	30.219 
15:40	12.8	12.8	12.8	64	3.0	2	5	90	0.00	30.219 
15:45	12.8	12.8	12.8	64	3.0	1	4	90	0.00	30.212 
15:50	12.6	12.6	12.6	64	2.8	1	3	90	0.00	30.212 
15:55	12.6	12.6	12.6	64	2.8	1	2	90	0.00	30.212 
16:00	12.4	12.4	12.4	64	2.6	1	2	90	0.00	30.214 
16:05	12.4	12.4	12.4	64	2.6	1	3	90	0.00	30.214 
16:10	12.6	12.6	12.6	64	2.8	0	2	90	0.00	30.214 
16:15	12.8	12.8	12.8	63	2.6	0	2	90	0.00	30.210 
16:20	13.1	13.1	13.1	63	2.9	0	2	90	0.00	30.210 
16:25	12.9	12.9	12.9	63	2.7	1	3	90	0.00	30.210 
16:30	12.8	12.8	12.8	63	2.6	1	3	90	0.00	30.198 
16:35	12.9	12.9	12.9	63	2.7	1	3	90	0.00	30.198 
16:40	12.9	12.9	12.9	63	2.7	1	3	90	0.00	30.198 
16:45	13.1	13.1	13.1	62	2.6	1	4	90	0.00	30.193 
16:50	13.1	13.1	13.1	63	2.9	1	4	90	0.00	30.193 
16:55	12.9	12.9	12.9	63	2.7	1	2	90	0.00	30.193 
17:00	12.9	12.9	12.9	62	2.4	0	1	90	0.00	30.197 
17:05	12.9	12.9	12.9	62	2.4	0	1	90	0.00	30.197 
17:10	12.9	12.9	12.9	62	2.4	0	1	90	0.00	30.197 
17:15	12.8	12.8	12.8	63	2.6	0	1	90	0.00	30.194 
17:20	12.6	12.6	12.6	62	2.1	0	1	90	0.00	30.194 
17:25	12.6	12.6	12.6	63	2.4	0	1	90	0.00	30.194 
17:30	12.4	12.4	12.4	63	2.2	0	1	90	0.00	30.188 
17:35	12.3	12.3	12.3	63	2.1	0	0	---	0.00	30.188 
17:40	12.3	12.3	12.3	63	2.1	0	0	---	0.00	30.188 
17:45	11.9	11.9	11.9	63	1.8	0	0	---	0.00	30.185 
17:50	11.7	11.7	11.7	63	1.6	0	1	90	0.00	30.185 
17:55	11.7	11.7	11.7	64	1.9	0	2	90	0.00	30.185 
18:00	11.7	11.7	11.7	64	1.9	0	1	90	0.00	30.182 
18:05	11.7	11.7	11.7	64	1.9	0	2	90	0.00	30.182 
18:10	11.7	11.7	11.7	64	1.9	1	2	90	0.00	30.182 
18:15	11.7	11.7	11.7	64	1.9	0	1	90	0.00	30.179 
18:20	11.7	11.7	11.7	64	1.9	0	2	90	0.00	30.179 
18:25	11.7	11.7	11.7	65	2.2	0	1	90	0.00	30.179 
18:30	11.7	11.7	11.7	65	2.2	0	2	90	0.00	30.178 
18:35	11.6	11.6	11.6	65	2.1	0	2	90	0.00	30.178 
18:40	11.7	11.7	11.7	65	2.2	1	2	90	0.00	30.178 
18:45	11.7	11.7	11.7	65	2.2	1	3	90	0.00	30.169 
18:50	11.9	11.9	11.9	65	2.4	1	3	90	0.00	30.169 
18:55	12.1	12.1	12.1	65	2.6	1	3	90	0.00	30.169 
19:00	12.1	12.1	12.1	65	2.6	1	3	90	0.00	30.167 
19:05	12.1	12.1	12.1	65	2.6	1	3	90	0.00	30.167 
19:10	12.1	12.1	12.1	65	2.6	1	2	90	0.00	30.167 
19:15	12.1	12.1	12.1	65	2.6	1	4	90	0.00	30.172 
19:20	12.1	12.1	12.1	65	2.6	2	4	90	0.00	30.172 
19:25	12.3	12.3	12.3	65	2.8	0	2	90	0.00	30.172 
19:30	12.3	12.3	12.3	65	2.8	0	2	90	0.00	30.173 
19:35	12.3	12.3	12.3	65	2.8	0	2	90	0.00	30.173 
19:40	12.4	12.4	12.4	65	2.9	0	1	90	0.00	30.173 
19:45	12.4	12.4	12.4	66	3.2	0	1	90	0.00	30.179 
19:50	12.4	12.4	12.4	65	2.9	0	1	90	0.00	30.179 
19:55	12.4	12.4	12.4	65	2.9	0	1	90	0.00	30.179 
20:00	12.6	12.6	12.6	66	3.4	0	1	90	0.00	30.181 
20:05	12.6	12.6	12.6	66	3.4	0	1	90	0.00	30.181 
20:10	12.8	12.8	12.8	66	3.6	0	2	90	0.00	30.181 
20:15	12.8	12.8	12.8	66	3.6	0	1	90	0.00	30.181 
20:20	12.9	12.9	12.9	66	3.7	0	2	90	0.00	30.181 
20:25	12.9	12.9	12.9	65	3.4	0	2	90	0.00	30.181 
20:30	13.1	13.1	13.1	65	3.6	1	3	90	0.00	30.178 
20:35	13.1	13.1	13.1	65	3.6	1	3	90	0.00	30.178 
20:40	13.1	13.1	13.1	65	3.6	1	4	90	0.00	30.178 
20:45	13.1	13.1	13.1	65	3.6	0	2	90	0.00	30.179 
20:50	12.9	12.9	12.9	65	3.4	1	5	90	0.00	30.179 
20:55	12.9	12.9	12.9	65	3.4	0	2	90	0.00	30.179 
21:00	12.9	12.9	12.9	65	3.4	0	0	---	0.00	30.181 
21:05	12.8	12.8	12.8	65	3.3	0	0	---	0.00	30.181 
21:10	12.8	12.8	12.8	66	3.6	0	0	---	0.00	30.181 
21:15	12.6	12.6	12.6	66	3.4	0	1	90	0.00	30.188 
21:20	12.6	12.6	12.6	66	3.4	0	0	---	0.00	30.188 
21:25	12.4	12.4	12.4	66	3.2	0	0	---	0.00	30.188 
21:30	12.3	12.3	12.3	66	3.1	0	0	---	0.00	30.182 
21:35	11.9	11.9	11.9	66	2.8	0	0	---	0.00	30.182 
21:40	11.6	11.6	11.6	67	2.8	0	1	90	0.00	30.182 
21:45	11.2	11.2	11.2	68	2.7	0	0	---	0.00	30.174 
21:50	11.1	11.1	11.1	68	2.6	0	0	---	0.00	30.174 
21:55	10.7	10.7	10.7	68	2.3	0	0	---	0.00	30.174 
22:00	10.5	10.5	10.5	69	2.4	0	1	90	0.00	30.161 
22:05	10.5	10.5	10.5	69	2.4	0	1	90	0.00	30.161 
22:10	10.4	10.4	10.4	69	2.3	0	0	---	0.00	30.161 
22:15	10.2	10.2	10.2	69	2.1	0	0	---	0.00	30.156 
22:20	10.0	10.0	10.0	69	1.9	0	0	---	0.00	30.156 
22:25	9.7	9.7	9.7	69	1.6	0	0	---	0.00	30.156 
22:30	9.3	9.3	9.3	69	1.2	0	0	---	0.00	30.155 
22:35	9.0	9.0	9.0	69	0.9	0	0	---	0.00	30.155 
22:40	8.6	8.6	8.6	69	0.5	0	0	---	0.00	30.155 
22:45	8.3	8.3	8.3	69	0.3	0	0	---	0.00	30.146 
22:50	7.9	7.9	7.9	70	0.2	0	0	---	0.00	30.146 
22:55	7.6	7.6	7.6	70	-0.1	0	0	---	0.00	30.146 
23:00	7.4	7.4	7.4	71	0.0	0	0	---	0.00	30.141 
23:05	7.0	7.0	7.0	71	-0.4	0	0	---	0.00	30.141 
23:10	6.9	6.9	6.9	72	-0.2	0	0	---	0.00	30.141 
23:15	6.5	6.5	6.5	72	-0.6	0	0	---	0.00	30.125 
23:20	6.3	6.3	6.3	73	-0.5	0	0	---	0.00	30.125 
23:25	6.1	6.1	6.1	73	-0.7	0	0	---	0.00	30.125 
23:30	6.0	6.0	6.0	73	-0.8	0	0	---	0.00	30.125 
23:35	5.8	5.8	5.8	74	-0.7	0	0	---	0.00	30.125 
23:40	5.6	5.6	5.6	75	-0.6	0	0	---	0.00	30.125 
23:45	5.6	5.6	5.6	75	-0.6	0	0	---	0.00	30.123 
23:50	5.4	5.4	5.4	76	-0.5	0	0	---	0.00	30.123 
23:55	5.4	5.4	5.4	76	-0.5	0	0	---	0.00	30.123 

CoCoRaHS
IN-AL-39
A2 Web Hosting
Creative Commons License
GoDaddy
search engine by freefind advanced

loaded 2018-11-14 03:33:56 • last modified 2010-11-18 10:43:29
Privacy PolicyDisclaimer
• wx.awcolley.com is powered by PmWiki v.2002016 •
• all content (unless otherwise noted) © 2018 A W Colley